Accueil
METAR-TAF:

METAR-TAF

Aéroports :

Le Mans, France

Aéroport Le Mans-Arnage

latitude: 47-56N, longitude: 000-12E, altitude: 59 m

Observation

Le bulletin a été fait il y a 16 minutes, à 19:00 UTC
Vent 5 kt de sud/sud-ouest
Température 11°C
Humidité 94%
Pression 1015 hPa
Visibilité 10 km ou plus
Nuages épars à une hauteur de 900 ft
Ciel couvert à une hauteur de 2400 ft

METAR: LFRM 211900Z AUTO 20005KT 9999 SCT009 OVC024 11/10 Q1015 BECMG 4000 BR OVC005

Heure: 20:16 (19:16 UTC)

Prévision

Le bulletin a été fait il y a 2 heures et 16 minutes, à 17:00 UTC
Prévision valable du 21 à 18 UTC au 22 à 03 UTC
Vent 4 kt de sud
Visibilité 10 km ou plus
Ciel couvert à une hauteur de 2000 ft
Evoluant progressivement
du 21 à 18 UTC au 21 à 21 UTC
Visibilité: 4000 m
Ciel couvert à une hauteur de 500 ft
brume

TAF: LFRM 211700Z 2118/2203 19004KT 9999 OVC020 BECMG 2118/2121 4000 BR OVC005

Observations et prévisions météorologiques de plus de 4000 aéroports (messages METAR et TAF).

Les stations disponibles sont représentées par des disques jaunes et rouges sur la carte.

Passer la souris dessus pour voir le nom de la station.

Cliquer dessus pour voir les observations et prévisions météorologiques.

Pour changer de carte: cliquez sur les boutons verts avec une croix noire pour zoomer, sur le bouton vert avec un tiret pour effectuer un zoom arrière, ou sur les flèches vertes pour les cartes adjacentes.


METAR-TAF: